KWAL/WAL METAR and TAF weather

Enter ICAO airport designator
Station Type Date Time Source
KWAL METAR 2019/08/24 21:54 UTC NOAA

KWAL 242154Z AUTO 04015KT 10SM OVC070 24/15 A3014 RMK AO2 SLP202 T02390150


Station Type Date Time Source
KWAL Decoded METAR 2019/08/24 21:54 UTC NOAA

Station name not available
Aug 24, 2019 - 05:54 PM EDT / 2019.08.24 2154 UTC
Wind: from the NE (040 degrees) at 17 MPH (15 KT):0
Visibility: 10 mile(s):0
Sky conditions: overcast
Temperature: 75.0 F (23.9 C)
Dew Point: 59.0 F (15.0 C)
Relative Humidity: 57%
Pressure (altimeter): 30.14 in. Hg (1020 hPa)
ob: KWAL 242154Z AUTO 04015KT 10SM OVC070 24/15 A3014 RMK AO2 SLP202 T02390150
cycle: 22

Station Type Date Time Source
KWAL TAF UTC NOAA

Error!

Example: see airport list